M/T Marvel — V7OZ3 — position and weather

sailwx.info

Track history (hours):
 
Tides and Currents Weather Stations Pressure Air Temp Water Temp Dewpoint Dewpoint Depression Visibility Wind Speed Wind Dir Waves Ship Positions

M/T Marvel

Last reported at 2017-Jan-21 13:32 UTC. Time now 2017-Feb-23 14:00 UTC.
Position N 00°13' W 050°42'.
Warning: this ship's position is 33 days out of date.

Length 183 m; draft 7.7 m.

Type: Tanker. MMSI: 538003191.

Date/timePositionNaut miles runAvg speedWind from/ knotsBaromVisibWave heightAir tempDewpointWater temp
2017-Jan-21 13:32N 00°13' W 050°42'1212.7
2017-Jan-21 12:33N 00°09' W 050°54'1312.6
2017-Jan-21 11:33S 00°00' W 051°02'1211.9
2017-Jan-21 10:33S 00°08' W 051°12'55513.2
2017-Jan-19 16:32S 03°09' W 059°56'1 0.7
2017-Jan-19 15:16S 03°09' W 059°57'0 0.0
2017-Jan-19 14:32S 03°09' W 059°57'0 0.0
2017-Jan-19 13:24S 03°09' W 059°57'0 0.0
2017-Jan-19 12:30S 03°09' W 059°57'0 0.0
2017-Jan-19 11:32S 03°09' W 059°57'0 0.0
2017-Jan-19 10:31S 03°09' W 059°57'0 0.0
2017-Jan-19 09:33S 03°09' W 059°57'0 0.0
2017-Jan-19 08:33S 03°09' W 059°57'0 0.0
2017-Jan-19 07:33S 03°09' W 059°57'0 0.0
2017-Jan-19 06:32S 03°09' W 059°57'0 0.0
2017-Jan-19 05:33S 03°09' W 059°57'0 0.0
2017-Jan-19 04:32S 03°09' W 059°57'0 0.0
2017-Jan-19 03:31S 03°09' W 059°57'0 0.0
2017-Jan-19 02:33S 03°09' W 059°57'0 0.0
2017-Jan-19 01:33S 03°09' W 059°57'0 0.0
2017-Jan-19 00:32S 03°09' W 059°57'0 0.0
2017-Jan-18 23:30S 03°09' W 059°57'0 0.0
2017-Jan-18 22:33S 03°09' W 059°57'0 0.0
2017-Jan-18 20:15S 03°09' W 059°57'0 0.0
2017-Jan-18 19:06S 03°09' W 059°57'0 0.0
2017-Jan-18 18:28S 03°09' W 059°57'0 0.0
2017-Jan-18 17:30S 03°09' W 059°57'0 0.0
2017-Jan-18 16:33S 03°09' W 059°57'0 0.0
2017-Jan-18 15:30S 03°09' W 059°57'0 0.0
2017-Jan-18 14:25S 03°09' W 059°57'0 0.0
2017-Jan-18 13:23S 03°09' W 059°57'0 0.0
2017-Jan-18 12:27S 03°09' W 059°57'0 0.0
2017-Jan-18 11:32S 03°09' W 059°57'1 0.4
2017-Jan-18 09:33S 03°09' W 059°56'0 0.0
2017-Jan-18 08:33S 03°09' W 059°56'0 0.0
2017-Jan-18 07:33S 03°09' W 059°56'0 0.0
2017-Jan-18 06:33S 03°09' W 059°56'0 0.0
2017-Jan-18 05:33S 03°09' W 059°56'0 0.0
2017-Jan-18 04:33S 03°09' W 059°56'0 0.0
2017-Jan-18 03:33S 03°09' W 059°56'0 0.0
2017-Jan-18 02:33S 03°09' W 059°56'1 0.6
2017-Jan-18 01:33S 03°09' W 059°56'  
2017-Jan-15 08:29S 00°13' W 051°03'1314.4
2017-Jan-15 07:33N 00°00' W 051°01'7 6.0
2017-Jan-15 06:26S 00°04' W 051°07'0 0.2
2017-Jan-15 05:32S 00°04' W 051°06'0 0.1
2017-Jan-15 04:32S 00°04' W 051°06'0 0.0
2017-Jan-15 03:29S 00°04' W 051°06'0 0.0
2017-Jan-15 02:29S 00°04' W 051°06'0 0.1
2017-Jan-15 01:33S 00°04' W 051°06'9 9.3
2017-Jan-15 00:33N 00°03' W 051°00'1110.6
2017-Jan-14 23:33N 00°10' W 050°52'  
Track history (hours):
 
Tides and Currents Weather Stations Pressure Air Temp Water Temp Dewpoint Dewpoint Depression Visibility Wind Speed Wind Dir Waves Ship Positions

M/T Marvel

Last reported at 2017-Jan-21 13:32 UTC. Time now 2017-Feb-23 14:00 UTC.
Position N 00°13' W 050°42'.
Warning: this ship's position is 33 days out of date.

Length 183 m; draft 7.7 m.

Type: Tanker. MMSI: 538003191.

Date/timePositionNaut miles runAvg speedWind from/ knotsBaromVisibWave heightAir tempDewpointWater temp
2017-Jan-21 13:32N 00°13' W 050°42'1212.7
2017-Jan-21 12:33N 00°09' W 050°54'1312.6
2017-Jan-21 11:33S 00°00' W 051°02'1211.9
2017-Jan-21 10:33S 00°08' W 051°12'55513.2
2017-Jan-19 16:32S 03°09' W 059°56'1 0.7
2017-Jan-19 15:16S 03°09' W 059°57'0 0.0
2017-Jan-19 14:32S 03°09' W 059°57'0 0.0
2017-Jan-19 13:24S 03°09' W 059°57'0 0.0
2017-Jan-19 12:30S 03°09' W 059°57'0 0.0
2017-Jan-19 11:32S 03°09' W 059°57'0 0.0
2017-Jan-19 10:31S 03°09' W 059°57'0 0.0
2017-Jan-19 09:33S 03°09' W 059°57'0 0.0
2017-Jan-19 08:33S 03°09' W 059°57'0 0.0
2017-Jan-19 07:33S 03°09' W 059°57'0 0.0
2017-Jan-19 06:32S 03°09' W 059°57'0 0.0
2017-Jan-19 05:33S 03°09' W 059°57'0 0.0
2017-Jan-19 04:32S 03°09' W 059°57'0 0.0
2017-Jan-19 03:31S 03°09' W 059°57'0 0.0
2017-Jan-19 02:33S 03°09' W 059°57'0 0.0
2017-Jan-19 01:33S 03°09' W 059°57'0 0.0
2017-Jan-19 00:32S 03°09' W 059°57'0 0.0
2017-Jan-18 23:30S 03°09' W 059°57'0 0.0
2017-Jan-18 22:33S 03°09' W 059°57'0 0.0
2017-Jan-18 20:15S 03°09' W 059°57'0 0.0
2017-Jan-18 19:06S 03°09' W 059°57'0 0.0
2017-Jan-18 18:28S 03°09' W 059°57'0 0.0
2017-Jan-18 17:30S 03°09' W 059°57'0 0.0
2017-Jan-18 16:33S 03°09' W 059°57'0 0.0
2017-Jan-18 15:30S 03°09' W 059°57'0 0.0
2017-Jan-18 14:25S 03°09' W 059°57'0 0.0
2017-Jan-18 13:23S 03°09' W 059°57'0 0.0
2017-Jan-18 12:27S 03°09' W 059°57'0 0.0
2017-Jan-18 11:32S 03°09' W 059°57'1 0.4
2017-Jan-18 09:33S 03°09' W 059°56'0 0.0
2017-Jan-18 08:33S 03°09' W 059°56'0 0.0
2017-Jan-18 07:33S 03°09' W 059°56'0 0.0
2017-Jan-18 06:33S 03°09' W 059°56'0 0.0
2017-Jan-18 05:33S 03°09' W 059°56'0 0.0
2017-Jan-18 04:33S 03°09' W 059°56'0 0.0
2017-Jan-18 03:33S 03°09' W 059°56'0 0.0
2017-Jan-18 02:33S 03°09' W 059°56'1 0.6
2017-Jan-18 01:33S 03°09' W 059°56'  
2017-Jan-15 08:29S 00°13' W 051°03'1314.4
2017-Jan-15 07:33N 00°00' W 051°01'7 6.0
2017-Jan-15 06:26S 00°04' W 051°07'0 0.2
2017-Jan-15 05:32S 00°04' W 051°06'0 0.1
2017-Jan-15 04:32S 00°04' W 051°06'0 0.0
2017-Jan-15 03:29S 00°04' W 051°06'0 0.0
2017-Jan-15 02:29S 00°04' W 051°06'0 0.1
2017-Jan-15 01:33S 00°04' W 051°06'9 9.3
2017-Jan-15 00:33N 00°03' W 051°00'1110.6
2017-Jan-14 23:33N 00°10' W 050°52'  

Dump ship's entire track history